createdAt,value
2022-11-19T00:00:03.674Z,82.02
2022-11-19T00:10:10.308Z,81.89
2022-11-19T00:20:17.604Z,81.90
2022-11-19T00:30:46.472Z,81.86
2022-11-19T00:40:49.060Z,81.76
2022-11-19T00:50:54.694Z,81.61
2022-11-19T01:01:00.430Z,81.41
2022-11-19T01:11:11.463Z,81.25
2022-11-19T01:21:18.323Z,80.85
2022-11-19T01:31:26.343Z,80.55
2022-11-19T01:41:33.915Z,80.35
2022-11-19T01:51:43.501Z,80.22
2022-11-19T02:01:49.313Z,79.99
2022-11-19T02:12:15.888Z,79.36
2022-11-19T02:22:44.795Z,79.10
2022-11-19T02:33:08.984Z,79.11
2022-11-19T02:43:18.385Z,79.14
2022-11-19T02:53:24.555Z,78.54
2022-11-19T03:03:49.508Z,78.41
2022-11-19T03:14:18.539Z,78.74
2022-11-19T03:24:29.845Z,78.74
2022-11-19T03:34:37.217Z,78.52
2022-11-19T03:44:48.836Z,78.15
2022-11-19T03:54:54.611Z,78.12
2022-11-19T04:04:58.705Z,78.41
2022-11-19T04:15:04.570Z,79.21
2022-11-19T04:25:11.611Z,79.64
2022-11-19T04:35:21.485Z,80.00
2022-11-19T04:45:27.060Z,80.64
2022-11-19T04:55:32.568Z,81.34
2022-11-19T05:05:38.237Z,81.91
2022-11-19T05:15:43.777Z,82.10
2022-11-19T05:25:49.429Z,82.20
2022-11-19T05:35:53.563Z,82.09
2022-11-19T05:46:02.004Z,81.96
2022-11-19T05:56:08.181Z,82.13
2022-11-19T06:06:13.757Z,81.86
2022-11-19T06:16:19.521Z,81.85
2022-11-19T06:26:24.522Z,82.06
2022-11-19T06:36:35.963Z,82.06
2022-11-19T06:46:44.845Z,82.38
2022-11-19T06:56:50.573Z,82.63
2022-11-19T07:06:54.771Z,82.69
2022-11-19T07:17:00.444Z,83.01
2022-11-19T07:27:06.102Z,79.92
2022-11-19T07:37:11.758Z,76.20
2022-11-19T07:47:17.316Z,72.26
2022-11-19T07:57:29.719Z,68.98
2022-11-19T08:07:37.855Z,66.68
2022-11-19T08:18:00.819Z,63.57
2022-11-19T08:28:06.765Z,60.39
2022-11-19T08:38:12.770Z,57.51
2022-11-19T08:48:18.319Z,54.60
2022-11-19T08:58:24.328Z,52.23
2022-11-19T09:08:29.955Z,48.97
2022-11-19T09:18:39.015Z,47.28
2022-11-19T09:28:45.249Z,46.16
2022-11-19T09:38:51.322Z,46.74
2022-11-19T09:49:02.069Z,48.20
2022-11-19T09:59:27.099Z,49.72
2022-11-19T10:09:43.588Z,51.17
2022-11-19T10:20:04.832Z,52.01
2022-11-19T10:30:17.461Z,53.10
2022-11-19T10:40:26.133Z,53.98
2022-11-19T10:50:31.799Z,55.02
2022-11-19T11:00:39.178Z,55.61
2022-11-19T11:10:47.206Z,55.82
2022-11-19T11:20:53.712Z,56.25
2022-11-19T11:30:58.738Z,56.87
2022-11-19T11:51:39.564Z,57.39
2022-11-19T12:01:55.787Z,57.54
2022-11-19T12:12:08.977Z,57.62
2022-11-19T12:22:24.133Z,57.35
2022-11-19T12:32:51.861Z,57.56
2022-11-19T12:43:04.868Z,58.00
2022-11-19T12:53:34.529Z,57.98
2022-11-19T13:04:00.745Z,57.73
2022-11-19T13:14:13.699Z,57.60
2022-11-19T13:24:30.328Z,57.45
2022-11-19T13:34:42.010Z,57.25
2022-11-19T13:44:47.816Z,56.93
2022-11-19T13:54:53.937Z,56.91
2022-11-19T14:05:38.963Z,57.27
2022-11-19T14:16:16.230Z,57.16
2022-11-19T14:26:52.866Z,57.18
2022-11-19T14:37:01.807Z,57.18
2022-11-19T14:47:35.226Z,57.36
2022-11-19T14:57:43.603Z,57.75
2022-11-19T15:07:56.131Z,58.31
2022-11-19T15:18:25.440Z,58.80
2022-11-19T15:28:43.458Z,59.15
2022-11-19T15:38:55.548Z,59.84
2022-11-19T15:49:07.695Z,60.38
2022-11-19T15:59:16.572Z,60.76
2022-11-19T16:09:25.958Z,61.06
2022-11-19T16:19:31.758Z,61.58
2022-11-19T16:29:41.226Z,61.87
2022-11-19T16:39:52.634Z,62.34
2022-11-19T16:50:04.876Z,62.83
2022-11-19T17:00:19.408Z,63.67
2022-11-19T17:10:32.115Z,64.15
2022-11-19T17:21:04.994Z,64.72
2022-11-19T17:31:19.018Z,65.22
2022-11-19T17:41:44.901Z,65.70
2022-11-19T17:51:50.822Z,65.96
2022-11-19T18:01:57.465Z,66.18
2022-11-19T18:12:03.676Z,65.86
2022-11-19T18:22:14.293Z,65.90
2022-11-19T18:32:20.374Z,65.86
2022-11-19T18:42:27.251Z,65.85
2022-11-19T18:52:33.374Z,65.79
2022-11-19T19:02:39.393Z,65.87
2022-11-19T19:12:43.636Z,65.76
2022-11-19T19:22:49.396Z,65.86
2022-11-19T19:32:55.171Z,65.88
2022-11-19T19:43:03.286Z,65.82
2022-11-19T19:53:10.543Z,65.78
2022-11-19T20:03:17.222Z,65.72
2022-11-19T20:13:28.694Z,65.81
2022-11-19T20:23:35.056Z,65.75
2022-11-19T20:33:42.640Z,65.77
2022-11-19T20:44:06.792Z,65.76
2022-11-19T20:54:13.090Z,66.01
2022-11-19T21:04:18.966Z,66.14
2022-11-19T21:14:23.160Z,66.43
2022-11-19T21:24:28.817Z,66.61
2022-11-19T21:34:34.519Z,66.63
2022-11-19T21:44:40.226Z,66.47
2022-11-19T21:54:46.059Z,66.62
2022-11-19T22:04:51.940Z,66.84
2022-11-19T22:14:56.137Z,66.82
2022-11-19T22:25:01.795Z,67.11
2022-11-19T22:35:08.818Z,67.12
2022-11-19T22:45:14.891Z,67.08
2022-11-19T22:55:21.121Z,66.95
2022-11-19T23:05:25.265Z,66.73
2022-11-19T23:15:31.024Z,66.61
2022-11-19T23:25:36.696Z,66.77
2022-11-19T23:35:42.471Z,66.69
2022-11-19T23:45:48.122Z,66.83
2022-11-19T23:55:53.916Z,66.86
